Station info - map view · info · telemetry · weather · raw · status · beacons · messages · bulletins · browse · moving · my account
Callsign, ship name or locator: Clear       
It is possible to search using wildcards (*?) after a prefix. Example: OH*
APRS station VE9MGP-9 - show graphs
Map loading...
Comment: 146.940MHz Or 144.390 MHz T100 Marcel
Mic-E message: In service
Location: 47°06.00' N 67°46.18' W - locator FN67CC74PA - show map - static map
8.7 miles Southeast bearing 117° from Van Buren, Aroostook County, Maine, United States [?]
8.9 miles Southeast bearing 125° from Saint Leonard, New Brunswick, Canada
31.2 miles North bearing 22° from Presque Isle, Aroostook County, Maine, United States
32.2 miles Southeast bearing 126° from Edmundston, New Brunswick, Canada
Last position: 2019-09-23 05:32:53 EDT (5h53m ago)
2019-09-23 05:32:53 EDT local time at Van Buren, United States [?]
Altitude: 751 ft
Course: 244°
Speed: 5 MPH
Device: Kenwood: TM-D710 (rig)
Last path: VE9MGP-9>T7PV0P via VE9GFL-3*,WIDE2-1,qAR,VE9CRM-10 (good)
Positions stored: 28052
Other SSIDs: VE9MGP VE9MGP-10 VE9MGP-7
Stations near current position of VE9MGP-9 - show more
callsign distance last heard - EDT      callsign distance last heard - EDT
VE9LYZ-9319.9 yards 72°2019-09-23 06:41:10 VE9GM-91.5 miles 210°2019-09-23 06:34:33
VE9GFL-34.5 miles 174°2019-09-23 11:17:52 VE9GFL4.6 miles 174°2019-09-23 11:24:51
VE9GM-104.6 miles 121°2019-09-23 09:58:19 NW1P-N8.6 miles 297°2019-09-23 11:17:10
DW291612.8 miles 238°2019-09-23 11:18:07 VE9STL17.4 miles 338°2019-09-23 11:19:47
N7GLR18.3 miles 303°2019-09-23 11:16:25 ER-K1BQY19.0 miles 214°2019-09-16 10:41:38
VE9GM-1519.6 miles 175°2019-09-23 11:25:32 VE9GM-325.7 miles 95°2019-09-23 11:18:14
KFVE27.9 miles 297°2019-09-23 11:22:51 VE9CGB-928.0 miles 310°2019-09-23 11:24:42
VE9CRM-1028.4 miles 309°2019-09-23 11:23:28 W1AYX29.5 miles 306°2019-09-23 11:17:15
VE9GXV-930.5 miles 307°2019-09-21 08:34:15 VE1PPL-831.7 miles 307°2019-09-23 10:47:36
W1AYX-932.2 miles 303°2019-09-22 17:39:20 VE1PIN-932.4 miles 304°2019-09-19 20:17:51
Stations which heard VE9MGP-9 directly on radio –
callsign pkts first heard - EDT last heard longest (tx => rx) longest at - EDT
VE2RAW-3 41 2019-09-02 11:08:21 2019-09-08 05:41:02 FN36UB > FN35LL 53.1 miles 223° 2019-09-08 05:41:02
VE2MGJ 20 2019-09-08 06:11:14 2019-09-08 07:01:33 FN46CJ > FN46GR 30.2 miles 38° 2019-09-08 06:11:14
VE2SIL 4 2019-09-08 04:15:16 2019-09-08 04:30:47 FN35HN > FN35CM 19.4 miles 258° 2019-09-08 04:30:47
VE2REY-3 7 2019-09-08 05:58:15 2019-09-08 06:22:26 FN46EM > FN36PO 51.3 miles 276° 2019-09-08 06:22:26
VE2ROW-1 22 2019-09-08 06:10:18 2019-09-08 07:28:06 FN47TC > FN46GT 57.3 miles 252° 2019-09-08 07:28:06
VE9FPG-3 154 2019-09-08 10:00:22 2019-09-22 17:41:29 FN57XH > FN66DQ 46.0 miles 157° 2019-09-12 18:26:39
VE9DGP-2 123 2019-09-08 09:32:51 2019-09-22 17:44:29 FN67DB > FN57UJ 35.6 miles 310° 2019-09-16 17:49:07
VE9DGP-3 4 2019-09-12 18:26:11 2019-09-22 05:15:25 FN57XH > FN67HL 33.1 miles 71° 2019-09-12 18:26:11
VA2EC 5 2019-09-08 06:48:19 2019-09-08 06:56:13 FN46MT > FN46KT 7.5 miles 259° 2019-09-08 06:56:13
VE2RTS-3 1 2019-09-08 04:22:03 2019-09-08 04:22:03 FN35FO > FN35DH 21.5 miles 203° 2019-09-08 04:22:03
VE2UMS-3 7 2019-09-08 04:17:19 2019-09-08 04:42:16 FN35KO > FN35GP 17.4 miles 280° 2019-09-08 04:42:16
VE2RTO-3 1 2019-09-08 05:56:26 2019-09-08 05:56:26 FN36XF > FN35VH 62.9 miles 188° 2019-09-08 05:56:26
VE9EDM-2 11 2019-09-15 15:16:03 2019-09-22 17:31:56 FN66DW > FN67BT 60.5 miles 355° 2019-09-15 15:26:51
VE9GFL-3 153 2019-09-08 09:52:10 2019-09-23 05:32:53 FN57WI > FN67CA 27.5 miles 138° 2019-09-22 15:39:12
VA2RVO-3 13 2019-09-08 05:47:29 2019-09-08 06:17:53 FN46DL > FN46BB 30.3 miles 196° 2019-09-08 06:17:53
VE2RIX-1 1 2019-09-08 07:00:36 2019-09-08 07:00:36 FN46NU > FN46NM 23.1 miles 180° 2019-09-08 07:00:36
VE9GM-10 42 2019-09-08 10:05:09 2019-09-08 16:11:05 FN67BD > FN67DB 10.5 miles 122° 2019-09-08 10:05:09
VE9CRM-10 85 2019-09-08 09:41:23 2019-09-22 17:33:45 FN67CC > FN57VI 28.1 miles 309° 2019-09-21 05:19:47
VE9GM-3 126 2019-09-08 09:53:10 2019-09-23 05:32:41 FN57UI > FN67JB 54.8 miles 112° 2019-09-22 15:46:08
VE2RMG 1 2019-09-08 07:44:05 2019-09-08 07:44:05 FN47WH > FN47IN 55.1 miles 289° 2019-09-08 07:44:05
VA2CPJ-13 15 2019-09-08 06:30:45 2019-09-08 06:50:21 FN46FO > FN46JT 19.7 miles 52° 2019-09-08 06:30:45
VE9RMO-2 55 2019-09-08 08:36:10 2019-09-22 17:43:42 FN67CC > FN57UT 55.1 miles 335° 2019-09-21 16:09:15
VE2RWO-7 12 2019-09-08 08:13:48 2019-09-18 06:45:46 FN67CC > FN58NC 86.2 miles 323° 2019-09-18 06:45:46
W5KF-7 1 2019-09-15 16:45:07 2019-09-15 16:45:07 FN66DT > FN66AQ 16.3 miles 231° 2019-09-15 16:45:07
VE9GM-4 24 2019-09-09 05:35:51 2019-09-23 05:32:27 FN67CC > FN66IK 53.9 miles 151° 2019-09-21 12:00:59
VE9RMO-1 6 2019-09-12 18:28:26 2019-09-22 17:00:25 FN67CC > FN67DT 49.2 miles 5° 2019-09-16 18:42:58
SEGATE 18 2019-09-08 04:57:03 2019-09-08 05:43:29 FN36UB > FN36KC 39.3 miles 274° 2019-09-08 05:43:29
VE9TMR-1 1 2019-09-19 05:28:32 2019-09-19 05:28:32 FN67CC > FN67NV 67.7 miles 37° 2019-09-19 05:28:32
VA2DWE-3 6 2019-09-08 04:40:47 2019-09-08 05:53:29 FN36WE > FN36GE 66.4 miles 271° 2019-09-08 05:53:29

Only position packets which were originated by the station are shown here. The range statistics show some extra long hops, because some digipeaters do not correctly add themselves to the digipeater path. Please check the raw packets.
About this site
This page shows real-time information collected from the Automatic Position Reporting System Internet network (APRS-IS). APRS is used by amateur (ham) radio operators to transmit real-time position information, weather data, telemetry and messages over the radio. A vehicle equipped with a GPS receiver, a VHF transmitter or HF transceiver and a small computer device called a tracker transmits it's location, speed and course in a small data packet, which is then received by a nearby iGate receiving site which forwards the packet on the Internet. Systems connected to the Internet can send information on the APRS-IS without a radio transmitter, or collect and display information transmitted anywhere in the world.
User guide · FAQ · Blog · Discussion group · Linking to aprs.fi · AIS sites · Service status · Database statistics · Advertising on aprs.fi · Technical details · API · Change log · Planned changes · Credits and thanks · Terms Of Service · iPhone/iPad APRS